Time;durP1;ratioP1;P1;durP2;ratioP2;P2;SDS_P1;SDS_P2;PMS_P1;PMS_P2;Temp;Humidity;BMP_temperature;BMP_pressure;BME280_temperature;BME280_humidity;BME280_pressure;Samples;Min_cycle;Max_cycle;Signal;HPM_P1;HPM_P2
2024/01/24 00:00:01;;;;;;;0.50;0.10;;;9.40;99.90;;;;;;5053480;28;20967;-77
2024/01/24 00:02:31;;;;;;;0.50;0.10;;;9.50;99.90;;;;;;5066034;28;20493;-76
2024/01/24 00:04:58;;;;;;;0.50;0.10;;;9.50;99.90;;;;;;5071797;28;20487;-76
2024/01/24 00:07:28;;;;;;;0.60;0.30;;;9.50;99.90;;;;;;5062368;28;20470;-77
2024/01/24 00:09:55;;;;;;;4.00;2.53;;;9.60;99.90;;;;;;5062400;28;20453;-77
2024/01/24 00:12:23;;;;;;;0.50;0.23;;;9.60;99.90;;;;;;5062130;28;20451;-77
2024/01/24 00:14:51;;;;;;;0.50;0.20;;;9.60;99.90;;;;;;5054641;28;20438;-76
2024/01/24 00:17:19;;;;;;;0.50;0.10;;;9.60;99.90;;;;;;5065938;28;20460;-76
2024/01/24 00:19:48;;;;;;;7.43;3.37;;;9.70;99.90;;;;;;5071373;28;20825;-76
2024/01/24 00:22:16;;;;;;;1.40;0.80;;;9.70;99.90;;;;;;5065637;28;20535;-77
2024/01/24 00:24:44;;;;;;;1.73;1.63;;;9.70;99.90;;;;;;5073683;28;20608;-77
2024/01/24 00:27:13;;;;;;;1.80;0.40;;;9.70;99.90;;;;;;5070611;28;20662;-77
2024/01/24 00:29:41;;;;;;;0.60;0.40;;;9.70;99.90;;;;;;5063172;28;20944;-77
2024/01/24 00:32:09;;;;;;;1.07;0.27;;;9.70;99.90;;;;;;5073874;28;20761;-77
2024/01/24 00:34:37;;;;;;;2.60;0.50;;;9.70;99.90;;;;;;5067944;28;20941;-78
2024/01/24 00:37:06;;;;;;;0.50;0.20;;;9.80;99.90;;;;;;5059577;28;20485;-76
2024/01/24 00:39:34;;;;;;;35.87;1.63;;;9.80;99.90;;;;;;5064968;28;20452;-77
2024/01/24 00:42:02;;;;;;;3.33;0.63;;;9.80;99.90;;;;;;5062714;28;20460;-77
2024/01/24 00:44:29;;;;;;;1.33;0.30;;;9.80;99.90;;;;;;5073980;28;20536;-77
2024/01/24 00:46:57;;;;;;;0.60;0.30;;;9.70;99.90;;;;;;5073503;28;20468;-77
2024/01/24 00:49:27;;;;;;;0.60;0.20;;;9.80;99.90;;;;;;5073340;28;20945;-77
2024/01/24 00:51:55;;;;;;;0.50;0.10;;;9.80;99.90;;;;;;5072731;28;20441;-77
2024/01/24 00:54:24;;;;;;;6.43;1.27;;;9.90;99.90;;;;;;5071949;28;20471;-76
2024/01/24 00:56:52;;;;;;;11.80;0.83;;;9.90;99.90;;;;;;5058040;28;20553;-76
2024/01/24 00:59:20;;;;;;;0.70;0.67;;;9.90;99.90;;;;;;5055926;28;20611;-76
2024/01/24 01:01:48;;;;;;;1.13;0.40;;;9.90;99.90;;;;;;5064533;28;20444;-76
2024/01/24 01:04:16;;;;;;;3.93;0.93;;;9.90;99.90;;;;;;5072432;28;20480;-77
2024/01/24 01:06:44;;;;;;;0.80;0.80;;;9.90;99.90;;;;;;5058500;28;20464;-77
2024/01/24 01:09:12;;;;;;;1.60;0.53;;;9.90;99.90;;;;;;5061929;28;20502;-77
2024/01/24 01:11:41;;;;;;;1.53;0.40;;;9.90;99.90;;;;;;5060053;28;20445;-77
2024/01/24 01:14:09;;;;;;;0.60;0.33;;;9.90;99.90;;;;;;5067157;28;20450;-75
2024/01/24 01:16:37;;;;;;;1.00;0.50;;;9.90;99.90;;;;;;5073001;28;20914;-77
2024/01/24 01:19:05;;;;;;;0.93;0.30;;;;;;;;;;5074164;28;20457;-76
2024/01/24 01:21:33;;;;;;;0.50;0.10;;;9.80;99.90;;;;;;5073634;28;20457;-77
2024/01/24 01:24:01;;;;;;;0.50;0.10;;;9.90;99.90;;;;;;5056674;28;20462;-78
2024/01/24 01:26:32;;;;;;;0.50;0.10;;;9.90;99.90;;;;;;5053759;28;20578;-76
2024/01/24 01:29:01;;;;;;;0.50;0.10;;;9.90;99.90;;;;;;5061655;28;20815;-75
2024/01/24 01:31:30;;;;;;;0.50;0.10;;;;;;;;;;5068824;28;20597;-76
2024/01/24 01:33:58;;;;;;;0.60;0.30;;;9.90;99.90;;;;;;5064687;28;20481;-75
2024/01/24 01:36:26;;;;;;;0.50;0.20;;;10.00;99.90;;;;;;5061337;28;20470;-75
2024/01/24 01:38:54;;;;;;;0.57;0.30;;;10.00;99.90;;;;;;5059429;28;20513;-76
2024/01/24 01:41:22;;;;;;;0.50;0.10;;;10.00;99.90;;;;;;5063744;28;20484;-76
2024/01/24 01:43:50;;;;;;;0.50;0.10;;;10.00;99.90;;;;;;5072459;28;21021;-76
2024/01/24 01:46:19;;;;;;;0.50;0.10;;;10.00;99.90;;;;;;5071413;28;20975;-76
2024/01/24 01:48:49;;;;;;;0.50;0.10;;;10.10;99.90;;;;;;5066117;28;20524;-76
2024/01/24 01:51:18;;;;;;;0.50;0.10;;;10.10;99.90;;;;;;5059100;28;20914;-76
2024/01/24 01:53:48;;;;;;;0.50;0.10;;;10.10;99.90;;;;;;5057978;28;20454;-76
2024/01/24 01:56:19;;;;;;;0.50;0.10;;;10.20;99.90;;;;;;5068674;28;20499;-77
2024/01/24 01:58:49;;;;;;;0.50;0.20;;;10.20;99.90;;;;;;5060143;28;20539;-77
2024/01/24 02:01:18;;;;;;;0.50;0.10;;;10.30;99.90;;;;;;5054622;28;20541;-77
2024/01/24 02:03:47;;;;;;;0.50;0.10;;;10.30;99.90;;;;;;5053898;28;20450;-77
2024/01/24 02:06:15;;;;;;;0.50;0.10;;;10.40;99.90;;;;;;5053557;28;20485;-76
2024/01/24 02:08:44;;;;;;;2.00;0.50;;;10.40;99.90;;;;;;5066088;28;20465;-78
2024/01/24 02:11:13;;;;;;;0.50;0.10;;;10.40;99.90;;;;;;5072654;28;20456;-76
2024/01/24 02:13:41;;;;;;;0.50;0.20;;;10.50;99.90;;;;;;5063875;28;20997;-77
2024/01/24 02:16:13;;;;;;;0.50;0.10;;;10.50;99.90;;;;;;5063658;28;20909;-77
2024/01/24 02:18:46;;;;;;;0.50;0.10;;;10.50;99.90;;;;;;5068034;28;20453;-75
2024/01/24 02:21:14;;;;;;;0.50;0.10;;;10.50;99.90;;;;;;5064927;28;20473;-76
2024/01/24 02:23:43;;;;;;;0.50;0.10;;;10.60;99.90;;;;;;5055228;28;20446;-76
2024/01/24 02:26:13;;;;;;;0.50;0.20;;;10.60;99.90;;;;;;5058847;28;20485;-76
2024/01/24 02:28:41;;;;;;;0.57;0.23;;;10.70;99.90;;;;;;5075292;28;20490;-75
2024/01/24 02:31:08;;;;;;;0.50;0.10;;;10.70;99.90;;;;;;5066572;28;20476;-76
2024/01/24 02:33:36;;;;;;;0.50;0.13;;;10.70;99.90;;;;;;5063870;28;20483;-76
2024/01/24 02:36:05;;;;;;;0.50;0.10;;;10.70;99.90;;;;;;5067916;28;20447;-76
2024/01/24 02:38:33;;;;;;;0.50;0.10;;;10.70;99.90;;;;;;5067279;28;20483;-76
2024/01/24 02:41:01;;;;;;;0.50;0.10;;;10.80;99.90;;;;;;5059137;28;20853;-76
2024/01/24 02:43:30;;;;;;;0.50;0.10;;;;;;;;;;5063557;28;20457;-76
2024/01/24 02:45:58;;;;;;;0.50;0.10;;;10.80;99.90;;;;;;5068804;28;20576;-77
2024/01/24 02:48:26;;;;;;;0.50;0.10;;;10.90;99.90;;;;;;5060700;28;20488;-77
2024/01/24 02:50:54;;;;;;;0.50;0.10;;;10.90;99.90;;;;;;5076269;28;20846;-77
2024/01/24 02:53:22;;;;;;;0.50;0.10;;;10.90;99.90;;;;;;5064604;28;20534;-77
2024/01/24 02:55:50;;;;;;;0.53;0.17;;;11.00;99.90;;;;;;5085442;23;20514;-74
2024/01/24 02:58:18;;;;;;;0.50;0.10;;;11.00;99.90;;;;;;5076134;28;20999;-74
2024/01/24 03:00:47;;;;;;;0.50;0.10;;;13.30;99.90;;;;;;5087675;28;20952;-73
2024/01/24 03:03:15;;;;;;;0.50;0.10;;;11.00;99.90;;;;;;5084740;28;20454;-75
2024/01/24 03:05:43;;;;;;;0.50;0.10;;;11.00;99.90;;;;;;5072602;28;20564;-74
2024/01/24 03:08:12;;;;;;;0.50;0.10;;;11.00;99.90;;;;;;5078018;28;20444;-73
2024/01/24 03:10:40;;;;;;;0.50;0.10;;;11.00;99.90;;;;;;5072992;28;20445;-74
2024/01/24 03:13:07;;;;;;;0.50;0.10;;;11.00;99.90;;;;;;5073033;28;20433;-75
2024/01/24 03:15:35;;;;;;;0.50;0.10;;;11.00;99.90;;;;;;5072973;28;20452;-74
2024/01/24 03:18:05;;;;;;;0.50;0.10;;;11.00;99.90;;;;;;5073486;28;20479;-74
2024/01/24 03:20:33;;;;;;;0.50;0.10;;;11.10;99.90;;;;;;5072963;28;20449;-74
2024/01/24 03:23:01;;;;;;;0.50;0.10;;;11.10;99.90;;;;;;5083394;28;21056;-72
2024/01/24 03:25:32;;;;;;;0.50;0.10;;;11.10;99.90;;;;;;5081553;28;20480;-73
2024/01/24 03:28:00;;;;;;;0.50;0.10;;;11.10;99.90;;;;;;5073055;28;20476;-75
2024/01/24 03:30:29;;;;;;;2.30;1.50;;;11.10;99.90;;;;;;5072873;28;20953;-74
2024/01/24 03:32:57;;;;;;;0.93;0.50;;;11.10;99.90;;;;;;5073810;28;20499;-73
2024/01/24 03:35:27;;;;;;;0.50;0.10;;;11.10;99.90;;;;;;5079604;28;20446;-73
2024/01/24 03:37:54;;;;;;;0.50;0.10;;;11.10;99.90;;;;;;5082955;28;20995;-73
2024/01/24 03:40:22;;;;;;;0.50;0.13;;;11.10;99.90;;;;;;5091593;28;20863;-73
2024/01/24 03:42:50;;;;;;;0.50;0.10;;;11.20;99.90;;;;;;5077421;28;20943;-73
2024/01/24 03:45:18;;;;;;;0.50;0.10;;;11.10;99.90;;;;;;5084027;28;20941;-74
2024/01/24 03:47:48;;;;;;;0.50;0.10;;;11.10;99.90;;;;;;5078974;28;20483;-73
2024/01/24 03:50:16;;;;;;;0.60;0.40;;;11.20;99.90;;;;;;5075808;28;20690;-75
2024/01/24 03:52:44;;;;;;;0.50;0.10;;;11.10;99.90;;;;;;5084492;28;20483;-73
2024/01/24 03:55:12;;;;;;;0.50;0.10;;;11.10;99.90;;;;;;5091383;28;20475;-73
2024/01/24 03:57:41;;;;;;;0.50;0.20;;;11.10;99.90;;;;;;5057105;28;1034182;-72
2024/01/24 04:00:11;;;;;;;0.70;0.30;;;11.10;99.90;;;;;;5090469;28;20216;-74
2024/01/24 04:02:41;;;;;;;0.50;0.10;;;11.10;99.90;;;;;;5085684;28;20964;-72
2024/01/24 04:05:10;;;;;;;0.70;0.23;;;11.10;99.90;;;;;;5082150;28;20566;-74
2024/01/24 04:07:38;;;;;;;0.50;0.10;;;11.10;99.90;;;;;;5074638;28;20493;-73
2024/01/24 04:10:08;;;;;;;0.50;0.30;;;11.10;99.90;;;;;;5081638;28;20528;-72
2024/01/24 04:12:36;;;;;;;0.50;0.20;;;11.20;99.90;;;;;;5073563;28;20579;-73
2024/01/24 04:15:05;;;;;;;0.50;0.20;;;11.20;99.90;;;;;;5073377;28;20498;-73
2024/01/24 04:17:34;;;;;;;0.60;0.50;;;11.20;99.90;;;;;;5073137;28;20461;-73
2024/01/24 04:20:02;;;;;;;1.10;0.40;;;11.20;99.90;;;;;;5076425;28;20957;-72
2024/01/24 04:22:30;;;;;;;0.50;0.10;;;11.20;99.90;;;;;;5074046;28;20442;-72
2024/01/24 04:25:00;;;;;;;0.50;0.10;;;;;;;;;;5073169;28;20555;-72
2024/01/24 04:27:29;;;;;;;2.53;0.50;;;11.20;99.90;;;;;;5090273;28;20603;-72
2024/01/24 04:29:57;;;;;;;0.50;0.10;;;11.20;99.90;;;;;;5092774;28;20447;-72
2024/01/24 04:32:25;;;;;;;0.50;0.10;;;11.20;99.90;;;;;;5074029;28;20472;-72
2024/01/24 04:34:53;;;;;;;0.50;0.17;;;11.20;99.90;;;;;;5078894;28;20924;-72
2024/01/24 04:37:25;;;;;;;7.43;0.97;;;11.20;99.90;;;;;;5076763;28;20472;-74
2024/01/24 04:39:52;;;;;;;0.50;0.17;;;11.20;99.90;;;;;;5073175;28;20491;-71
2024/01/24 04:42:20;;;;;;;0.50;0.20;;;11.20;99.90;;;;;;5072596;28;20468;-72
2024/01/24 04:44:50;;;;;;;0.50;0.10;;;11.20;99.90;;;;;;5072860;28;20536;-72
2024/01/24 04:47:18;;;;;;;0.60;0.20;;;;;;;;;;5079890;28;20522;-73
2024/01/24 04:49:46;;;;;;;0.50;0.10;;;11.20;99.90;;;;;;5091447;28;20448;-72
2024/01/24 04:52:14;;;;;;;0.50;0.20;;;11.20;99.90;;;;;;5083812;28;20464;-72
2024/01/24 04:54:42;;;;;;;0.50;0.10;;;11.20;1.00;;;;;;5077133;28;20436;-73
2024/01/24 04:57:10;;;;;;;0.50;0.10;;;11.20;1.00;;;;;;5075587;28;20469;-72
2024/01/24 04:59:40;;;;;;;0.50;0.20;;;11.20;1.00;;;;;;5071712;28;20925;-73
2024/01/24 05:02:21;;;;;;;0.50;0.10;;;11.20;1.00;;;;;;5073814;28;20475;-74
2024/01/24 05:04:49;;;;;;;0.50;0.10;;;11.20;1.00;;;;;;5078835;28;20460;-74
2024/01/24 05:07:17;;;;;;;0.50;0.10;;;;;;;;;;5075284;28;20940;-72
2024/01/24 05:09:45;;;;;;;3.73;3.40;;;11.10;1.00;;;;;;5078395;28;20464;-73
2024/01/24 05:12:13;;;;;;;1.77;1.03;;;14.40;1.00;;;;;;5074098;28;20452;-73
2024/01/24 05:14:42;;;;;;;0.50;0.10;;;11.10;1.00;;;;;;5071761;28;20460;-73
2024/01/24 05:17:10;;;;;;;0.53;0.17;;;11.00;1.00;;;;;;5071276;28;20492;-73
2024/01/24 05:19:39;;;;;;;0.50;0.13;;;11.00;1.00;;;;;;5071042;28;20443;-73
2024/01/24 05:22:07;;;;;;;0.50;0.10;;;10.90;1.00;;;;;;5070789;28;20484;-73
2024/01/24 05:24:35;;;;;;;0.50;0.10;;;10.90;1.00;;;;;;5075190;28;20456;-72
2024/01/24 05:27:03;;;;;;;0.50;0.20;;;11.00;1.00;;;;;;5076297;28;20507;-73
2024/01/24 05:29:31;;;;;;;0.50;0.20;;;11.00;1.00;;;;;;5071139;28;20480;-72
2024/01/24 05:31:59;;;;;;;0.50;0.10;;;11.00;1.00;;;;;;5070875;28;20873;-74
2024/01/24 05:34:27;;;;;;;0.50;0.10;;;11.00;1.00;;;;;;5070950;28;20531;-73
2024/01/24 05:36:57;;;;;;;0.60;0.30;;;11.10;1.00;;;;;;5078783;28;20485;-74
2024/01/24 05:39:25;;;;;;;0.50;0.10;;;11.10;1.00;;;;;;5070915;28;20434;-73
2024/01/24 05:41:53;;;;;;;0.60;0.20;;;11.20;1.00;;;;;;5077123;28;20460;-73
2024/01/24 05:44:21;;;;;;;0.50;0.10;;;15.40;1.00;;;;;;5074819;28;20492;-73
2024/01/24 05:46:49;;;;;;;3.50;0.90;;;11.20;1.00;;;;;;5077913;28;20564;-74
2024/01/24 05:49:18;;;;;;;1.00;0.27;;;11.20;1.00;;;;;;5073437;28;20970;-73
2024/01/24 05:51:46;;;;;;;0.50;0.10;;;11.30;1.00;;;;;;5083316;28;20444;-73
2024/01/24 05:54:16;;;;;;;1.27;0.50;;;11.30;1.00;;;;;;5075285;28;20484;-74
2024/01/24 05:56:44;;;;;;;0.50;0.10;;;11.40;1.00;;;;;;5074726;28;20467;-73
2024/01/24 05:59:12;;;;;;;0.60;0.20;;;11.40;1.00;;;;;;5091276;28;20837;-74
2024/01/24 06:01:43;;;;;;;0.50;0.10;;;11.50;1.00;;;;;;5072433;28;20453;-74
2024/01/24 06:04:11;;;;;;;0.50;0.10;;;11.50;1.00;;;;;;5090591;28;20858;-73
2024/01/24 06:06:39;;;;;;;0.50;0.10;;;11.50;1.00;;;;;;5090534;28;20523;-73
2024/01/24 06:09:08;;;;;;;0.50;0.10;;;11.50;1.00;;;;;;5079264;28;20502;-73
2024/01/24 06:11:38;;;;;;;0.50;0.10;;;11.50;1.00;;;;;;5073689;28;20853;-73
2024/01/24 06:14:06;;;;;;;0.50;0.10;;;11.60;1.00;;;;;;5076982;28;20710;-72
2024/01/24 06:16:34;;;;;;;0.50;0.20;;;11.60;1.00;;;;;;5079296;28;20460;-73
2024/01/24 06:19:02;;;;;;;1.57;0.20;;;11.60;1.00;;;;;;5070877;28;20443;-73
2024/01/24 06:21:30;;;;;;;0.50;0.10;;;11.70;1.00;;;;;;5070209;28;20449;-74
2024/01/24 06:23:58;;;;;;;2.83;1.70;;;11.70;1.00;;;;;;5071671;28;20460;-74
2024/01/24 06:26:26;;;;;;;0.50;0.20;;;11.70;1.00;;;;;;5075143;28;20489;-75
2024/01/24 06:28:56;;;;;;;0.50;0.10;;;11.70;1.00;;;;;;5071538;28;20525;-74
2024/01/24 06:31:24;;;;;;;0.50;0.10;;;11.80;1.00;;;;;;5073475;28;20881;-74
2024/01/24 06:33:53;;;;;;;0.50;0.20;;;11.80;1.00;;;;;;5078184;28;20552;-73
2024/01/24 06:36:21;;;;;;;2.00;0.50;;;11.80;1.00;;;;;;5078802;28;20456;-75
2024/01/24 06:38:49;;;;;;;0.50;0.10;;;11.80;1.00;;;;;;5071251;28;20433;-74
2024/01/24 06:41:17;;;;;;;1.67;1.30;;;11.90;1.00;;;;;;5070268;28;20445;-73
2024/01/24 06:43:45;;;;;;;0.50;0.20;;;11.90;1.00;;;;;;5070053;28;20441;-74
2024/01/24 06:46:14;;;;;;;0.50;0.20;;;11.90;1.00;;;;;;5073415;28;20505;-73
2024/01/24 06:48:42;;;;;;;0.50;0.10;;;11.90;1.00;;;;;;5079292;28;20891;-73
2024/01/24 06:51:13;;;;;;;0.50;0.10;;;;;;;;;;5075722;28;20452;-74
2024/01/24 06:53:41;;;;;;;0.50;0.10;;;12.00;1.00;;;;;;5076092;28;20496;-73
2024/01/24 06:56:09;;;;;;;0.50;0.10;;;11.00;1.00;;;;;;5078815;28;20542;-72
2024/01/24 06:58:37;;;;;;;0.50;0.27;;;12.10;1.00;;;;;;5069590;28;20975;-74
2024/01/24 07:01:05;;;;;;;0.50;0.10;;;12.10;1.00;;;;;;5072324;28;20452;-73
2024/01/24 07:03:35;;;;;;;0.50;0.20;;;12.10;1.00;;;;;;5074652;28;20497;-73
2024/01/24 07:06:05;;;;;;;0.50;0.23;;;12.10;1.00;;;;;;5078239;28;20867;-75
2024/01/24 07:08:34;;;;;;;1.33;0.67;;;12.10;1.00;;;;;;5078899;28;20519;-73
2024/01/24 07:11:05;;;;;;;0.50;0.10;;;12.10;1.00;;;;;;5074180;28;20484;-73
2024/01/24 07:13:33;;;;;;;0.50;0.10;;;12.10;1.00;;;;;;5081912;28;20864;-72
2024/01/24 07:16:04;;;;;;;0.60;0.20;;;12.20;1.00;;;;;;5073537;28;20457;-73
2024/01/24 07:18:32;;;;;;;0.50;0.10;;;12.20;1.00;;;;;;5072851;28;20469;-73
2024/01/24 07:21:06;;;;;;;0.60;0.40;;;12.10;1.00;;;;;;5073587;28;20791;-74
2024/01/24 07:23:34;;;;;;;0.50;0.20;;;12.10;1.00;;;;;;5079588;28;20460;-74
2024/01/24 07:26:03;;;;;;;0.50;0.20;;;12.10;1.00;;;;;;5074743;28;20514;-75
2024/01/24 07:28:32;;;;;;;0.50;0.30;;;12.10;1.00;;;;;;5081717;28;20523;-72
2024/01/24 07:31:00;;;;;;;0.50;0.10;;;12.10;1.00;;;;;;5081270;28;20552;-73
2024/01/24 07:33:28;;;;;;;0.50;0.10;;;12.10;1.00;;;;;;5079392;28;20444;-73
2024/01/24 07:35:56;;;;;;;0.63;0.20;;;12.10;1.00;;;;;;5072985;28;20995;-75
2024/01/24 07:38:25;;;;;;;0.50;0.10;;;12.20;1.00;;;;;;5071346;28;20464;-73
2024/01/24 07:40:53;;;;;;;0.50;0.10;;;12.10;1.00;;;;;;5071360;28;20498;-76
2024/01/24 07:43:22;;;;;;;0.50;0.20;;;12.20;1.00;;;;;;5083430;28;20442;-75
2024/01/24 07:45:50;;;;;;;9.73;4.90;;;12.20;1.00;;;;;;5080832;28;20453;-73
2024/01/24 07:48:18;;;;;;;0.60;0.20;;;12.20;1.00;;;;;;5079150;28;20472;-74
2024/01/24 07:50:46;;;;;;;0.70;0.20;;;12.30;1.00;;;;;;5081900;28;20538;-73
2024/01/24 07:53:14;;;;;;;0.50;0.20;;;12.30;1.00;;;;;;5075718;28;20445;-73
2024/01/24 07:55:44;;;;;;;0.63;0.23;;;12.40;1.00;;;;;;5076951;28;20456;-73
2024/01/24 07:58:26;;;;;;;0.60;0.20;;;12.50;1.00;;;;;;5075506;28;20473;-75
2024/01/24 08:00:55;;;;;;;0.50;0.10;;;12.60;1.00;;;;;;5075265;28;20537;-74
2024/01/24 08:03:24;;;;;;;0.57;0.30;;;12.70;1.00;;;;;;5080350;28;20465;-74
2024/01/24 08:05:52;;;;;;;0.60;0.30;;;12.80;99.90;;;;;;5078369;28;20445;-76
2024/01/24 08:08:20;;;;;;;0.50;0.20;;;12.90;99.90;;;;;;5079370;28;20481;-72
2024/01/24 08:10:50;;;;;;;0.50;0.10;;;13.00;99.90;;;;;;5079002;28;20458;-75
2024/01/24 08:13:17;;;;;;;0.50;0.20;;;13.10;99.90;;;;;;5083528;28;20451;-74
2024/01/24 08:15:46;;;;;;;0.50;0.10;;;13.00;99.90;;;;;;5071826;28;20453;-76
2024/01/24 08:18:15;;;;;;;0.50;0.10;;;13.20;99.90;;;;;;5079422;28;20456;-74
2024/01/24 08:20:43;;;;;;;0.50;0.10;;;13.20;99.90;;;;;;5080266;28;20517;-75
2024/01/24 08:23:11;;;;;;;0.50;0.10;;;13.20;99.90;;;;;;5081232;28;20460;-73
2024/01/24 08:25:39;;;;;;;0.50;0.10;;;13.20;99.90;;;;;;5076355;28;21011;-74
2024/01/24 08:28:08;;;;;;;0.60;0.30;;;13.30;99.90;;;;;;5078790;28;20484;-73
2024/01/24 08:30:37;;;;;;;0.50;0.10;;;13.30;99.90;;;;;;5078657;28;20444;-73
2024/01/24 08:33:05;;;;;;;0.50;0.10;;;13.40;99.90;;;;;;5078051;28;20876;-74
2024/01/24 08:35:35;;;;;;;0.50;0.10;;;13.40;99.90;;;;;;5082060;28;20452;-75
2024/01/24 08:38:04;;;;;;;0.70;0.33;;;13.40;99.90;;;;;;5101658;28;20461;-75
2024/01/24 08:40:32;;;;;;;1.20;0.40;;;13.50;99.90;;;;;;5099701;28;21121;-78
2024/01/24 08:43:00;;;;;;;0.60;0.10;;;13.50;99.90;;;;;;5096352;28;20453;-78
2024/01/24 08:45:29;;;;;;;0.50;0.10;;;13.50;99.90;;;;;;5104488;28;20449;-76
2024/01/24 08:47:57;;;;;;;0.50;0.20;;;13.60;99.90;;;;;;5090865;28;21003;-74
2024/01/24 08:50:25;;;;;;;0.50;0.10;;;13.70;99.90;;;;;;5082827;28;20452;-75
2024/01/24 08:52:53;;;;;;;0.50;0.20;;;13.70;99.90;;;;;;5078414;28;20461;-76
2024/01/24 08:55:21;;;;;;;0.60;0.20;;;13.80;99.90;;;;;;5079019;28;20961;-76
2024/01/24 08:57:49;;;;;;;0.50;0.10;;;13.80;99.90;;;;;;5081794;28;20483;-76
2024/01/24 09:00:18;;;;;;;0.60;0.20;;;13.80;99.90;;;;;;5074930;28;20456;-75
2024/01/24 09:02:47;;;;;;;0.60;0.10;;;13.90;99.90;;;;;;5077709;28;20465;-75
2024/01/24 09:05:18;;;;;;;0.50;0.10;;;13.90;99.90;;;;;;5070468;28;20449;-75
2024/01/24 09:07:46;;;;;;;1.13;1.03;;;13.90;99.90;;;;;;5078196;28;21036;-75
2024/01/24 09:10:15;;;;;;;0.50;0.10;;;14.00;99.90;;;;;;5078011;28;20572;-76
2024/01/24 09:12:43;;;;;;;0.60;0.10;;;13.90;99.90;;;;;;5080824;28;20451;-75
2024/01/24 09:15:11;;;;;;;0.50;0.10;;;13.90;99.90;;;;;;5075867;28;20536;-76
2024/01/24 09:17:39;;;;;;;0.50;0.10;;;13.80;99.90;;;;;;5080586;28;21012;-76
2024/01/24 09:20:09;;;;;;;0.50;0.10;;;13.90;99.90;;;;;;5072468;28;20441;-75
2024/01/24 09:22:38;;;;;;;0.50;0.10;;;13.80;99.90;;;;;;5080168;28;20441;-73
2024/01/24 09:25:07;;;;;;;0.50;0.10;;;13.80;99.90;;;;;;5080189;28;20453;-75
2024/01/24 09:27:37;;;;;;;0.50;0.20;;;13.80;99.90;;;;;;5073370;28;20560;-78
2024/01/24 09:30:07;;;;;;;0.60;0.20;;;13.80;99.90;;;;;;5077410;28;20480;-75
2024/01/24 09:32:35;;;;;;;0.50;0.10;;;13.70;99.90;;;;;;5080923;28;21013;-74
2024/01/24 09:35:03;;;;;;;0.60;0.20;;;13.70;99.90;;;;;;5076525;28;20843;-74
2024/01/24 09:37:33;;;;;;;0.50;0.10;;;13.70;99.90;;;;;;5080607;28;20492;-76
2024/01/24 09:40:01;;;;;;;0.60;0.50;;;13.60;99.90;;;;;;5081759;28;20481;-76
2024/01/24 09:42:31;;;;;;;4.10;0.40;;;13.60;99.90;;;;;;5080624;28;20520;-75
2024/01/24 09:45:00;;;;;;;0.60;0.50;;;13.60;99.90;;;;;;5081373;28;20548;-75
2024/01/24 09:47:28;;;;;;;0.77;0.60;;;13.60;99.90;;;;;;5077263;28;20460;-75
2024/01/24 09:49:59;;;;;;;0.50;0.10;;;13.60;99.90;;;;;;5080437;28;20592;-75
2024/01/24 09:52:27;;;;;;;9.07;2.57;;;13.60;99.90;;;;;;5076337;28;20481;-77
2024/01/24 09:54:59;;;;;;;6.63;1.07;;;13.60;99.90;;;;;;5077069;28;20929;-75
2024/01/24 09:57:28;;;;;;;0.50;0.10;;;13.60;99.90;;;;;;5080586;28;20480;-79
2024/01/24 09:59:56;;;;;;;0.97;0.97;;;13.70;99.90;;;;;;5075858;28;20816;-74
2024/01/24 10:02:26;;;;;;;0.57;0.20;;;13.70;99.90;;;;;;5079113;28;20503;-75
2024/01/24 10:04:55;;;;;;;1.17;0.93;;;13.70;99.90;;;;;;5077452;28;20596;-74
2024/01/24 10:07:23;;;;;;;0.50;0.10;;;13.70;99.90;;;;;;5076818;28;20537;-73
2024/01/24 10:10:06;;;;;;;0.60;0.10;;;16.10;99.90;;;;;;5074154;28;20481;-74
2024/01/24 10:12:35;;;;;;;0.50;0.10;;;13.70;99.90;;;;;;5072924;28;20459;-77
2024/01/24 10:15:03;;;;;;;0.50;0.10;;;13.70;99.90;;;;;;5075980;28;20518;-73
2024/01/24 10:17:32;;;;;;;0.50;0.10;;;13.70;99.90;;;;;;5078355;28;20488;-74
2024/01/24 10:20:00;;;;;;;0.50;0.10;;;13.70;99.90;;;;;;5079217;28;20495;-76
2024/01/24 10:22:28;;;;;;;3.70;0.63;;;13.70;99.90;;;;;;5079178;28;20828;-75
2024/01/24 10:24:58;;;;;;;1.93;0.47;;;13.70;99.90;;;;;;5070772;28;20448;-75
2024/01/24 10:27:27;;;;;;;1.37;0.67;;;13.70;99.90;;;;;;5077452;28;20506;-77
2024/01/24 10:29:58;;;;;;;1.13;1.03;;;13.70;99.90;;;;;;5075998;28;20597;-75
2024/01/24 10:32:26;;;;;;;4.53;0.30;;;13.70;99.90;;;;;;5072545;28;20456;-75
2024/01/24 10:34:54;;;;;;;1.07;0.57;;;13.70;99.90;;;;;;5071342;28;20461;-74
2024/01/24 10:37:23;;;;;;;3.50;2.60;;;;;;;;;;5072917;28;20481;-75
2024/01/24 10:39:54;;;;;;;0.80;0.30;;;13.70;99.90;;;;;;5081528;28;20448;-74
2024/01/24 10:42:26;;;;;;;7.13;3.40;;;13.70;99.90;;;;;;5080519;28;20459;-75
2024/01/24 10:44:57;;;;;;;0.70;0.37;;;13.70;99.90;;;;;;5087016;28;20816;-76
2024/01/24 10:47:26;;;;;;;0.60;0.20;;;13.80;99.90;;;;;;5077682;28;20902;-74
2024/01/24 10:49:57;;;;;;;0.50;0.10;;;13.80;98.50;;;;;;5077591;28;20477;-74
2024/01/24 10:52:28;;;;;;;5.33;1.40;;;13.70;95.50;;;;;;5083408;28;20443;-74
2024/01/24 10:54:58;;;;;;;0.67;0.20;;;13.70;95.20;;;;;;5089913;28;20961;-75
2024/01/24 10:57:27;;;;;;;1.00;0.30;;;13.80;95.10;;;;;;5086362;28;20841;-75
2024/01/24 10:59:57;;;;;;;3.17;1.13;;;13.80;99.90;;;;;;5082011;28;20436;-78
2024/01/24 11:02:25;;;;;;;1.50;0.70;;;13.90;92.30;;;;;;5083964;28;20460;-74
2024/01/24 11:04:55;;;;;;;1.13;0.40;;;14.00;92.40;;;;;;5089191;28;20460;-74
2024/01/24 11:07:29;;;;;;;0.70;0.70;;;13.90;88.30;;;;;;5075280;28;20496;-79
2024/01/24 11:10:12;;;;;;;1.57;1.43;;;13.90;81.40;;;;;;5074038;28;20967;-75
2024/01/24 11:12:40;;;;;;;0.50;0.20;;;13.80;80.30;;;;;;5083228;28;20451;-75
2024/01/24 11:15:13;;;;;;;0.90;0.20;;;13.80;80.00;;;;;;5075701;28;20457;-74
2024/01/24 11:17:45;;;;;;;1.47;0.70;;;13.80;81.50;;;;;;5074073;28;20547;-76
2024/01/24 11:20:14;;;;;;;0.57;0.10;;;13.80;84.70;;;;;;5087055;28;20528;-73
2024/01/24 11:22:42;;;;;;;0.60;0.30;;;13.80;86.80;;;;;;5082857;28;20494;-73
2024/01/24 11:25:12;;;;;;;2.40;1.10;;;13.80;88.10;;;;;;5090467;28;20436;-73
2024/01/24 11:27:44;;;;;;;1.37;0.53;;;13.70;88.30;;;;;;5078348;28;20978;-74
2024/01/24 11:30:18;;;;;;;3.13;2.17;;;13.70;86.30;;;;;;5076960;28;20492;-74
2024/01/24 11:33:01;;;;;;;1.20;0.83;;;13.70;80.10;;;;;;5083534;28;20444;-74
2024/01/24 11:35:40;;;;;;;0.50;0.10;;;13.70;82.10;;;;;;5081838;28;20507;-74
2024/01/24 11:38:09;;;;;;;1.80;0.37;;;;;;;;;;5082173;28;20455;-76
2024/01/24 11:40:53;;;;;;;2.20;0.93;;;13.70;79.00;;;;;;5078705;28;20453;-77
2024/01/24 11:43:25;;;;;;;0.97;0.80;;;13.70;78.30;;;;;;5086589;28;20453;-73
2024/01/24 11:45:55;;;;;;;1.80;0.50;;;13.70;76.80;;;;;;5087727;28;20520;-73
2024/01/24 11:48:23;;;;;;;1.57;0.83;;;13.80;73.40;;;;;;5087058;28;20429;-74
2024/01/24 11:50:56;;;;;;;0.70;0.47;;;13.80;72.70;;;;;;5076441;28;21066;-76
2024/01/24 11:53:24;;;;;;;0.50;0.10;;;13.90;73.20;;;;;;5081547;28;20480;-75
2024/01/24 11:55:54;;;;;;;3.20;1.17;;;13.90;60.10;;;;;;5079166;28;20498;-76
2024/01/24 11:58:25;;;;;;;0.50;0.10;;;13.80;60.20;;;;;;5075529;28;20434;-73
2024/01/24 12:00:56;;;;;;;0.80;0.80;;;13.80;59.60;;;;;;5080381;28;20471;-74
2024/01/24 12:03:24;;;;;;;1.57;1.20;;;13.80;59.80;;;;;;5079506;28;20444;-76
2024/01/24 12:05:53;;;;;;;0.60;0.20;;;13.80;61.40;;;;;;5082702;28;20441;-76
2024/01/24 12:08:21;;;;;;;0.50;0.10;;;13.70;63.80;;;;;;5078978;28;20570;-73
2024/01/24 12:10:50;;;;;;;4.53;0.40;;;13.80;62.00;;;;;;5080684;28;20499;-73
2024/01/24 12:13:22;;;;;;;1.63;0.60;;;13.80;61.20;;;;;;5081986;28;20444;-74
2024/01/24 12:15:52;;;;;;;0.60;0.20;;;13.70;61.00;;;;;;5082117;28;20518;-74
2024/01/24 12:18:22;;;;;;;0.97;0.93;;;13.70;55.60;;;;;;5081440;28;20456;-73
2024/01/24 12:20:53;;;;;;;0.50;0.10;;;13.70;54.20;;;;;;5078691;28;20471;-75
2024/01/24 12:23:25;;;;;;;2.70;1.03;;;13.60;54.20;;;;;;5078603;28;20456;-73
2024/01/24 12:25:54;;;;;;;3.60;0.53;;;13.60;53.20;;;;;;5081534;28;20445;-73
2024/01/24 12:28:23;;;;;;;0.50;0.10;;;13.70;53.70;;;;;;5074023;28;20441;-73
2024/01/24 12:30:54;;;;;;;0.50;0.10;;;13.70;50.60;;;;;;5076516;28;20476;-73
2024/01/24 12:33:24;;;;;;;6.53;2.27;;;13.70;47.90;;;;;;5081213;28;20484;-78
2024/01/24 12:35:53;;;;;;;1.93;0.57;;;13.70;44.40;;;;;;5077369;28;20995;-73
2024/01/24 12:38:25;;;;;;;8.60;2.03;;;13.70;46.10;;;;;;5084350;28;20501;-74
2024/01/24 12:40:55;;;;;;;0.60;0.30;;;13.70;42.90;;;;;;5074393;28;20567;-74
2024/01/24 12:43:23;;;;;;;1.90;0.93;;;13.80;42.20;;;;;;5082501;28;20460;-75
2024/01/24 12:45:53;;;;;;;2.03;0.93;;;13.80;42.50;;;;;;5075838;28;20536;-74
2024/01/24 12:48:22;;;;;;;2.30;0.80;;;;;;;;;;5089815;28;20436;-74
2024/01/24 12:50:53;;;;;;;17.17;1.03;;;12.00;39.30;;;;;;5085599;28;20511;-75
2024/01/24 12:53:22;;;;;;;2.93;1.13;;;13.80;38.10;;;;;;5083862;28;20503;-73
2024/01/24 12:55:50;;;;;;;1.03;0.43;;;13.80;37.60;;;;;;5073356;28;20495;-74
2024/01/24 12:58:18;;;;;;;0.60;0.20;;;13.80;39.80;;;;;;5087526;28;20472;-74
2024/01/24 13:00:46;;;;;;;1.97;1.13;;;13.80;35.60;;;;;;5081582;28;20441;-75